Time;durP1;ratioP1;P1;durP2;ratioP2;P2;SDS_P1;SDS_P2;PMS_P1;PMS_P2;Temp;Humidity;BMP_temperature;BMP_pressure;BME280_temperature;BME280_humidity;BME280_pressure;Samples;Min_cycle;Max_cycle;Signal;HPM_P1;HPM_P2
2023/07/13 00:01:20;;;;;;;6.40;3.80;;;;;;;19.03;60.38;99158.19;107185;1257;72661;-39
2023/07/13 00:03:48;;;;;;;4.40;3.60;;;;;;;18.97;60.75;99161.39;107200;1256;59813;-39
2023/07/13 00:06:16;;;;;;;7.60;4.60;;;;;;;18.92;61.03;99156.77;107250;1256;59500;-39
2023/07/13 00:08:44;;;;;;;8.30;4.60;;;;;;;18.88;61.15;99147.95;107182;1257;73101;-39
2023/07/13 00:11:11;;;;;;;7.20;3.70;;;;;;;18.86;61.51;99146.51;107148;1256;67943;-39
2023/07/13 00:13:40;;;;;;;6.40;3.80;;;;;;;18.89;61.46;99145.83;107145;1256;71319;-40
2023/07/13 00:16:08;;;;;;;6.80;3.80;;;;;;;18.95;61.47;99143.43;107236;1256;60095;-39
2023/07/13 00:18:37;;;;;;;5.60;3.90;;;;;;;18.98;61.51;99138.35;107203;1255;59536;-40
2023/07/13 00:21:05;;;;;;;5.10;3.40;;;;;;;18.99;61.23;99136.84;107246;1256;73048;-40
2023/07/13 00:23:39;;;;;;;6.40;3.70;;;;;;;18.99;61.25;99139.92;107224;1258;68537;-39
2023/07/13 00:26:08;;;;;;;4.80;3.60;;;;;;;19.00;61.40;99134.94;107384;1257;72754;-39
2023/07/13 00:28:38;;;;;;;6.60;4.10;;;;;;;19.00;61.47;99134.16;107161;1256;59710;-39
2023/07/13 00:31:07;;;;;;;6.20;4.00;;;;;;;18.98;61.44;99132.15;107214;1256;59583;-40
2023/07/13 00:33:36;;;;;;;7.70;3.90;;;;;;;18.92;61.21;99132.34;107203;1260;73012;-39
2023/07/13 00:36:04;;;;;;;4.90;3.60;;;;;;;18.84;61.46;99128.88;107055;1256;67603;-38
2023/07/13 00:38:32;;;;;;;5.60;4.00;;;;;;;18.77;61.62;99126.82;107108;1256;70478;-38
2023/07/13 00:40:59;;;;;;;5.30;4.10;;;;;;;18.72;61.91;99128.72;106950;1256;59589;-39
2023/07/13 00:43:27;;;;;;;5.60;3.80;;;;;;;18.69;62.09;99130.16;107200;1256;59774;-40
2023/07/13 00:45:58;;;;;;;7.00;3.20;;;;;;;18.68;61.92;99126.60;107232;1257;73042;-40
2023/07/13 00:48:28;;;;;;;6.40;3.30;;;;;;;18.72;62.04;99131.39;107072;1262;67622;-40
2023/07/13 00:50:57;;;;;;;4.50;3.70;;;;;;;18.72;62.19;99130.60;107250;1257;72648;-39
2023/07/13 00:53:25;;;;;;;6.50;3.70;;;;;;;18.69;62.14;99128.30;107265;1257;59413;-40
2023/07/13 00:55:52;;;;;;;5.00;3.70;;;;;;;18.69;62.20;99125.09;107190;1257;59530;-39
2023/07/13 00:58:20;;;;;;;5.20;3.70;;;;;;;18.68;62.47;99114.98;107048;1256;73035;-39
2023/07/13 01:00:47;;;;;;;7.10;3.60;;;;;;;18.68;62.69;99107.05;107056;1257;67613;-39
2023/07/13 01:03:15;;;;;;;4.20;3.70;;;;;;;18.68;62.93;99108.00;106972;1257;72654;-39
2023/07/13 01:05:43;;;;;;;6.90;4.30;;;;;;;18.67;62.94;99106.35;107230;1257;59819;-39
2023/07/13 01:08:11;;;;;;;8.60;3.80;;;;;;;18.65;62.77;99104.73;107227;1256;60023;-39
2023/07/13 01:10:38;;;;;;;4.80;3.70;;;;;;;18.63;62.65;99102.11;107221;1256;73037;-39
2023/07/13 01:13:08;;;;;;;8.60;3.80;;;;;;;18.64;62.71;99108.84;107229;1256;67639;-39
2023/07/13 01:15:42;;;;;;;6.50;3.60;;;;;;;18.66;62.65;99108.19;107281;1256;72673;-39
2023/07/13 01:18:24;;;;;;;6.20;3.60;;;;;;;18.67;62.71;99106.67;107263;1257;60068;-39
2023/07/13 01:21:00;;;;;;;5.00;3.80;;;;;;;18.66;62.63;99110.05;107050;1256;60021;-39
2023/07/13 01:23:28;;;;;;;7.70;4.00;;;;;;;18.63;62.73;99112.16;107239;1257;72135;-39
2023/07/13 01:25:56;;;;;;;5.20;3.60;;;;;;;18.61;62.86;99111.71;107285;1260;66354;-38
2023/07/13 01:28:26;;;;;;;4.70;3.70;;;;;;;18.62;62.87;99107.15;107216;1256;71503;-39
2023/07/13 01:30:55;;;;;;;6.80;3.40;;;;;;;18.61;62.89;99111.17;107243;1259;60228;-39
2023/07/13 01:33:23;;;;;;;7.40;4.10;;;;;;;18.55;62.88;99112.21;107315;1259;59520;-39
2023/07/13 01:35:51;;;;;;;7.70;3.60;;;;;;;18.51;63.01;99116.81;107311;1256;73137;-39
2023/07/13 01:38:21;;;;;;;7.40;3.40;;;;;;;18.43;63.38;99116.23;107281;1256;67520;-39
2023/07/13 01:40:48;;;;;;;8.60;3.70;;;;;;;18.41;63.63;99116.98;107185;1256;72682;-39
2023/07/13 01:43:17;;;;;;;6.60;3.90;;;;;;;18.40;63.74;99115.33;107212;1259;59835;-41
2023/07/13 01:45:47;;;;;;;4.80;3.70;;;;;;;18.37;63.98;99121.66;106935;1256;59621;-40
2023/07/13 01:48:14;;;;;;;5.30;4.00;;;;;;;18.37;64.13;99116.49;107089;1263;73094;-40
2023/07/13 01:50:42;;;;;;;6.50;3.90;;;;;;;18.33;64.13;99115.31;107038;1256;67585;-40
2023/07/13 01:53:10;;;;;;;8.20;3.80;;;;;;;18.28;64.38;99111.00;107199;1257;72663;-40
2023/07/13 01:55:39;;;;;;;5.00;3.60;;;;;;;18.30;64.74;99105.95;107228;1256;60365;-40
2023/07/13 01:58:08;;;;;;;6.10;3.20;;;;;;;18.34;64.67;99104.86;107230;1256;59767;-40
2023/07/13 02:00:36;;;;;;;10.60;4.00;;;;;;;18.42;64.60;99098.14;107120;1262;72398;-40
2023/07/13 02:03:03;;;;;;;5.20;3.90;;;;;;;18.46;64.26;99097.29;107246;1258;66298;-40
2023/07/13 02:05:57;;;;;;;8.40;3.90;;;;;;;18.50;64.37;99096.13;107261;1257;71453;-44
2023/07/13 02:08:25;;;;;;;5.20;3.30;;;;;;;18.54;64.14;99093.31;107118;1256;59328;-37
2023/07/13 02:10:53;;;;;;;6.20;4.20;;;;;;;18.55;64.08;99087.27;107211;1256;59507;-39
2023/07/13 02:13:20;;;;;;;6.90;4.10;;;;;;;18.56;63.86;99089.60;107199;1257;73150;-38
2023/07/13 02:15:50;;;;;;;5.90;3.90;;;;;;;18.55;63.89;99092.35;107227;1260;68125;-38
2023/07/13 02:18:18;;;;;;;6.10;4.20;;;;;;;18.53;63.63;99095.85;107145;1260;72832;-38
2023/07/13 02:20:49;;;;;;;5.00;3.70;;;;;;;18.51;63.78;99098.05;107201;1256;61670;-39
2023/07/13 02:23:17;;;;;;;7.90;3.80;;;;;;;18.50;63.89;99100.66;107032;1256;60035;-38
2023/07/13 02:25:46;;;;;;;8.70;3.90;;;;;;;18.51;64.06;99101.91;107252;1256;71941;-38
2023/07/13 02:28:15;;;;;;;6.50;3.70;;;;;;;18.48;64.00;99108.93;107140;1256;67753;-39
2023/07/13 02:30:43;;;;;;;6.50;3.60;;;;;;;18.42;64.48;99112.26;107127;1258;71474;-39
2023/07/13 02:33:10;;;;;;;5.50;3.60;;;;;;;18.35;64.73;99110.59;107231;1259;60369;-38
2023/07/13 02:35:38;;;;;;;4.50;3.50;;;;;;;18.33;65.03;99105.02;107235;1256;60312;-38
2023/07/13 02:38:06;;;;;;;7.50;3.80;;;;;;;18.37;65.31;99096.34;107231;1257;74321;-42
2023/07/13 02:40:35;;;;;;;6.40;3.50;;;;;;;18.41;65.01;99093.92;107191;1255;66660;-38
2023/07/13 02:43:03;;;;;;;4.90;3.60;;;;;;;18.46;64.84;99096.98;107175;1257;70376;-38
2023/07/13 02:45:31;;;;;;;7.20;3.70;;;;;;;18.52;64.78;99098.36;107192;1259;60306;-38
2023/07/13 02:47:59;;;;;;;6.70;3.80;;;;;;;18.53;64.71;99096.55;107063;1262;60427;-38
2023/07/13 02:50:27;;;;;;;7.60;3.70;;;;;;;18.50;64.87;99096.52;107216;1257;73871;-38
2023/07/13 02:52:54;;;;;;;5.80;3.90;;;;;;;18.47;65.14;99098.85;107099;1255;67551;-38
2023/07/13 02:55:22;;;;;;;6.60;3.80;;;;;;;18.50;65.24;99102.30;107162;1257;71411;-38
2023/07/13 02:57:50;;;;;;;5.30;3.90;;;;;;;18.51;65.28;99096.73;107162;1260;60277;-38
2023/07/13 03:00:18;;;;;;;4.40;3.30;;;;;;;18.51;65.33;99094.77;107209;1257;60171;-38
2023/07/13 03:02:46;;;;;;;5.80;3.80;;;;;;;18.52;65.31;99094.52;107262;1257;72575;-38
2023/07/13 03:05:15;;;;;;;4.90;3.50;;;;;;;18.57;65.26;99099.45;107218;1257;65483;-38
2023/07/13 03:07:43;;;;;;;6.00;4.00;;;;;;;18.58;65.29;99102.19;107259;1257;71466;-38
2023/07/13 03:10:11;;;;;;;8.50;4.30;;;;;;;18.60;65.50;99103.27;107234;1257;60485;-39
2023/07/13 03:12:45;;;;;;;5.20;4.20;;;;;;;18.58;65.54;99105.26;107210;1257;60330;-38
2023/07/13 03:15:24;;;;;;;7.50;4.30;;;;;;;18.56;65.76;99105.60;107188;1257;73058;-38
2023/07/13 03:17:52;;;;;;;5.30;3.80;;;;;;;18.54;65.97;99099.20;107231;1256;66768;-38
2023/07/13 03:20:23;;;;;;;6.60;4.10;;;;;;;18.57;65.78;99098.77;107259;1256;70398;-38
2023/07/13 03:22:50;;;;;;;6.20;4.20;;;;;;;18.63;65.73;99098.03;107093;1256;60335;-38
2023/07/13 03:25:18;;;;;;;9.10;4.30;;;;;;;18.67;65.54;99099.14;107304;1260;60193;-38
2023/07/13 03:27:46;;;;;;;4.90;4.20;;;;;;;18.69;65.55;99096.20;107239;1256;72640;-38
2023/07/13 03:30:13;;;;;;;6.20;4.70;;;;;;;18.70;65.58;99094.46;107262;1260;67714;-39
2023/07/13 03:32:42;;;;;;;4.80;4.10;;;;;;;18.73;65.67;99096.91;107215;1257;71446;-39
2023/07/13 03:35:10;;;;;;;6.20;4.30;;;;;;;18.71;65.77;99094.91;107110;1261;60409;-39
2023/07/13 03:37:42;;;;;;;9.10;4.30;;;;;;;18.68;65.69;99088.23;107090;1260;60287;-39
2023/07/13 03:40:14;;;;;;;7.50;4.20;;;;;;;18.71;65.74;99087.61;107308;1257;72580;-39
2023/07/13 03:42:43;;;;;;;5.90;4.30;;;;;;;18.76;65.82;99090.13;107120;1262;66637;-39
2023/07/13 03:45:11;;;;;;;8.20;4.80;;;;;;;18.75;65.61;99090.75;107267;1257;71396;-39
2023/07/13 03:47:39;;;;;;;8.20;4.40;;;;;;;18.74;65.71;99087.77;107108;1258;60540;-39
2023/07/13 03:50:07;;;;;;;7.80;4.20;;;;;;;18.72;65.77;99086.88;107146;1258;60066;-39
2023/07/13 03:52:35;;;;;;;6.70;4.60;;;;;;;18.71;65.90;99086.52;107131;1257;73822;-38
2023/07/13 03:55:03;;;;;;;9.10;4.40;;;;;;;18.72;66.06;99087.52;107285;1260;66758;-39
2023/07/13 03:57:30;;;;;;;4.80;4.00;;;;;;;18.76;66.07;99090.89;107280;1257;72720;-39
2023/07/13 03:59:58;;;;;;;7.80;4.40;;;;;;;18.81;66.02;99085.85;107242;1258;60473;-39
2023/07/13 04:02:26;;;;;;;9.10;4.30;;;;;;;18.85;66.09;99084.68;107144;1260;60431;-39
2023/07/13 04:04:54;;;;;;;6.60;4.60;;;;;;;18.91;65.89;99089.42;107218;1260;72639;-39
2023/07/13 04:07:24;;;;;;;6.60;4.60;;;;;;;18.95;65.89;99089.76;107266;1257;66741;-39
2023/07/13 04:09:51;;;;;;;6.20;4.60;;;;;;;19.01;65.84;99098.04;107233;1257;71447;-39
2023/07/13 04:12:19;;;;;;;6.80;4.10;;;;;;;19.07;65.95;99098.14;107202;1257;60634;-39
2023/07/13 04:14:47;;;;;;;6.40;4.40;;;;;;;19.16;65.81;99099.23;107053;1256;60417;-39
2023/07/13 04:17:14;;;;;;;7.80;4.50;;;;;;;19.27;65.76;99098.54;107239;1260;73877;-39
2023/07/13 04:19:42;;;;;;;5.30;4.30;;;;;;;19.35;65.36;99099.84;107305;1259;67639;-39
2023/07/13 04:22:09;;;;;;;7.20;3.90;;;;;;;19.38;65.23;99101.52;107293;1257;71408;-39
2023/07/13 04:24:37;;;;;;;6.00;4.70;;;;;;;19.40;65.31;99102.65;107177;1260;60416;-39
2023/07/13 04:27:06;;;;;;;5.40;4.40;;;;;;;19.43;65.24;99105.59;107276;1258;60431;-39
2023/07/13 04:29:34;;;;;;;6.00;4.40;;;;;;;19.45;65.35;99106.73;107358;1259;72530;-39
2023/07/13 04:32:02;;;;;;;7.00;4.40;;;;;;;19.47;65.31;99110.39;107313;1257;67589;-39
2023/07/13 04:34:30;;;;;;;6.20;4.00;;;;;;;19.54;65.01;99104.99;107273;1259;72676;-39
2023/07/13 04:36:57;;;;;;;6.70;4.80;;;;;;;19.65;65.01;99105.62;107269;1259;60299;-39
2023/07/13 04:39:25;;;;;;;7.20;4.60;;;;;;;19.72;64.81;99107.27;107345;1256;59650;-39
2023/07/13 04:41:52;;;;;;;8.40;5.10;;;;;;;19.76;64.83;99111.42;107248;1257;73893;-39
2023/07/13 04:44:20;;;;;;;5.30;4.40;;;;;;;19.80;64.74;99111.48;107197;1260;66752;-39
2023/07/13 04:46:48;;;;;;;6.90;4.80;;;;;;;19.82;64.50;99112.39;107200;1260;71061;-39
2023/07/13 04:49:15;;;;;;;8.10;4.90;;;;;;;19.84;64.49;99113.84;107312;1259;60386;-39
2023/07/13 04:51:43;;;;;;;5.90;5.00;;;;;;;19.87;64.72;99117.61;107241;1260;60223;-39
2023/07/13 04:54:10;;;;;;;8.40;5.10;;;;;;;19.94;64.65;99122.40;107298;1261;73871;-38
2023/07/13 04:56:38;;;;;;;7.40;4.40;;;;;;;20.05;64.10;99118.86;107307;1257;67671;-38
2023/07/13 04:59:05;;;;;;;6.40;4.60;;;;;;;20.12;63.91;99113.58;107251;1258;72977;-38
2023/07/13 05:01:34;;;;;;;9.40;4.70;;;;;;;20.17;63.56;99114.55;107353;1259;59870;-38
2023/07/13 05:04:01;;;;;;;7.60;4.50;;;;;;;20.23;63.04;99117.80;107305;1256;60016;-38
2023/07/13 05:06:30;;;;;;;6.00;4.40;;;;;;;20.27;62.94;99113.05;107224;1260;73847;-38
2023/07/13 05:08:58;;;;;;;6.00;4.50;;;;;;;20.32;62.59;99116.34;107220;1257;67936;-38
2023/07/13 05:11:25;;;;;;;6.80;4.70;;;;;;;20.36;62.06;99113.55;107276;1257;70478;-38
2023/07/13 05:13:53;;;;;;;6.20;4.70;;;;;;;20.39;62.00;99115.08;107159;1260;60623;-38
2023/07/13 05:16:20;;;;;;;5.70;4.10;;;;;;;20.40;62.09;99117.32;107242;1258;60283;-38
2023/07/13 05:18:48;;;;;;;7.00;4.40;;;;;;;20.46;61.99;99116.70;107226;1258;72541;-38
2023/07/13 05:21:16;;;;;;;5.20;4.30;;;;;;;20.57;61.91;99119.59;107234;1258;68049;-38
2023/07/13 05:23:48;;;;;;;5.30;4.20;;;;;;;20.66;61.59;99117.14;107128;1260;71920;-39
2023/07/13 05:26:15;;;;;;;6.00;4.30;;;;;;;20.73;61.17;99119.48;107027;1257;60491;-39
2023/07/13 05:28:44;;;;;;;6.60;4.30;;;;;;;20.79;61.05;99118.84;107138;1258;60042;-38
2023/07/13 05:31:11;;;;;;;7.00;4.60;;;;;;;20.86;60.88;99118.58;107135;1260;71669;-38
2023/07/13 05:33:40;;;;;;;5.70;4.00;;;;;;;20.90;60.78;99118.25;107226;1259;67989;-38
2023/07/13 05:36:08;;;;;;;10.30;4.50;;;;;;;20.92;60.86;99114.98;107175;1256;72834;-39
2023/07/13 05:38:36;;;;;;;7.60;4.50;;;;;;;20.92;60.94;99115.91;107249;1256;60376;-38
2023/07/13 05:41:03;;;;;;;5.60;4.30;;;;;;;20.95;60.89;99117.41;107167;1255;60307;-39
2023/07/13 05:43:33;;;;;;;7.40;4.70;;;;;;;20.97;60.93;99120.35;107213;1259;73863;-38
2023/07/13 05:46:01;;;;;;;5.60;4.50;;;;;;;21.03;60.62;99120.02;107147;1257;68272;-39
2023/07/13 05:48:42;;;;;;;5.20;4.30;;;;;;;21.12;60.72;99118.67;107285;1260;72663;-40
2023/07/13 05:51:10;;;;;;;7.70;4.10;;;;;;;21.22;60.64;99120.05;107011;1257;60419;-39
2023/07/13 05:53:38;;;;;;;5.80;4.30;;;;;;;21.35;60.75;99112.69;107169;1260;60434;-39
2023/07/13 05:56:12;;;;;;;6.60;4.30;;;;;;;21.51;59.89;99103.78;107133;1258;73999;-39
2023/07/13 05:58:39;;;;;;;4.90;4.00;;;;;;;21.68;58.55;99100.61;107152;1260;67586;-39
2023/07/13 06:01:10;;;;;;;5.80;4.00;;;;;;;21.79;58.63;99103.97;107065;1258;71453;-39
2023/07/13 06:03:38;;;;;;;7.10;4.40;;;;;;;21.88;58.35;99108.17;107209;1257;60302;-38
2023/07/13 06:06:06;;;;;;;6.20;4.50;;;;;;;21.96;58.27;99103.38;107276;1257;60506;-38
2023/07/13 06:08:34;;;;;;;7.10;4.30;;;;;;;22.07;58.52;99096.58;107158;1257;73929;-39
2023/07/13 06:11:14;;;;;;;8.00;4.50;;;;;;;22.19;58.13;99096.90;107234;1257;68043;-39
2023/07/13 06:13:42;;;;;;;6.00;4.00;;;;;;;22.32;57.71;99096.48;107216;1261;72703;-38
2023/07/13 06:16:10;;;;;;;9.70;4.30;;;;;;;22.43;57.57;99100.77;107178;1258;60082;-38
2023/07/13 06:18:37;;;;;;;5.70;3.80;;;;;;;22.53;56.49;99097.27;107204;1263;60526;-38
2023/07/13 06:21:07;;;;;;;9.00;4.40;;;;;;;22.63;56.99;99099.77;107235;1259;73931;-40
2023/07/13 06:23:35;;;;;;;;;;;;;;;22.74;57.01;99096.49;107171;1257;66398;-39
2023/07/13 06:26:03;;;;;;;6.50;3.90;;;;;;;22.78;56.59;99092.48;107243;1258;71350;-39
2023/07/13 06:28:31;;;;;;;5.30;3.60;;;;;;;22.81;55.94;99092.36;107249;1261;60438;-39
2023/07/13 06:30:59;;;;;;;5.90;3.90;;;;;;;22.89;56.06;99092.33;107216;1260;60509;-39
2023/07/13 06:33:27;;;;;;;4.90;3.80;;;;;;;22.95;56.60;99091.73;107168;1257;73841;-39
2023/07/13 06:35:57;;;;;;;6.60;3.40;;;;;;;23.01;56.31;99089.95;107202;1258;67942;-39
2023/07/13 06:38:25;;;;;;;5.10;3.70;;;;;;;23.05;55.38;99098.16;107300;1258;71426;-40
2023/07/13 06:40:52;;;;;;;7.00;3.60;;;;;;;23.09;54.99;99098.16;107196;1257;60502;-40
2023/07/13 06:43:20;;;;;;;5.00;3.40;;;;;;;23.14;55.54;99102.09;107245;1257;60462;-40
2023/07/13 06:45:49;;;;;;;5.60;3.60;;;;;;;23.21;55.61;99095.75;107220;1256;73922;-39
2023/07/13 06:48:18;;;;;;;5.50;3.00;;;;;;;23.31;54.23;99092.32;107340;1257;67578;-39
2023/07/13 06:50:49;;;;;;;4.30;3.50;;;;;;;23.39;53.24;99095.32;107212;1257;72748;-40
2023/07/13 06:53:18;;;;;;;3.90;3.20;;;;;;;23.47;53.01;99095.70;107057;1257;60537;-39
2023/07/13 06:55:45;;;;;;;6.20;3.50;;;;;;;23.55;52.21;99096.48;107190;1260;60418;-40
2023/07/13 06:58:15;;;;;;;5.10;3.50;;;;;;;23.64;51.77;99095.41;107291;1258;75885;-39
2023/07/13 07:00:48;;;;;;;8.30;3.70;;;;;;;23.71;52.38;99097.14;107396;1257;66886;-38
2023/07/13 07:03:19;;;;;;;7.80;3.80;;;;;;;23.78;52.55;99096.02;107273;1257;71899;-38
2023/07/13 07:05:53;;;;;;;4.00;3.50;;;;;;;23.87;52.66;99107.05;107274;1257;62532;-39
2023/07/13 07:08:21;;;;;;;4.80;3.40;;;;;;;23.95;51.44;99104.54;107162;1257;60394;-39
2023/07/13 07:10:53;;;;;;;8.50;3.90;;;;;;;24.03;51.53;99112.41;107201;1258;73067;-39
2023/07/13 07:13:21;;;;;;;5.40;3.50;;;;;;;24.12;51.95;99112.48;107206;1255;66670;-39
2023/07/13 07:15:50;;;;;;;3.50;3.20;;;;;;;24.19;51.68;99112.75;107262;1257;71948;-39
2023/07/13 07:18:17;;;;;;;9.10;3.60;;;;;;;24.28;51.93;99115.26;107219;1257;60108;-39
2023/07/13 07:20:45;;;;;;;5.80;3.70;;;;;;;24.32;51.53;99109.09;107238;1260;60374;-38
2023/07/13 07:23:12;;;;;;;5.10;3.70;;;;;;;24.35;51.24;99109.42;107190;1257;73863;-38
2023/07/13 07:25:41;;;;;;;5.20;3.60;;;;;;;24.36;51.12;99109.30;107238;1257;66396;-38
2023/07/13 07:28:09;;;;;;;4.30;3.30;;;;;;;24.35;51.47;99110.04;107214;1257;72455;-38
2023/07/13 07:30:44;;;;;;;5.70;3.40;;;;;;;24.33;51.53;99112.20;107238;1258;60470;-38
2023/07/13 07:33:16;;;;;;;12.30;3.60;;;;;;;24.33;52.01;99111.27;107356;1257;60358;-38
2023/07/13 07:35:43;;;;;;;3.80;3.40;;;;;;;24.32;51.94;99108.48;107184;1257;73850;-39
2023/07/13 07:38:31;;;;;;;3.60;3.30;;;;;;;24.34;52.12;99106.58;107175;1257;66297;-38
2023/07/13 07:40:58;;;;;;;8.60;3.60;;;;;;;24.36;52.32;99112.54;107357;1257;72667;-39
2023/07/13 07:43:29;;;;;;;4.20;3.40;;;;;;;24.42;52.77;99112.70;107242;1260;60449;-38
2023/07/13 07:45:56;;;;;;;6.60;3.20;;;;;;;24.48;52.53;99120.59;107258;1257;60495;-39
2023/07/13 07:48:26;;;;;;;6.40;3.70;;;;;;;24.52;51.90;99118.61;107162;1258;72749;-39
2023/07/13 07:50:54;;;;;;;5.90;3.70;;;;;;;24.54;52.13;99117.00;107234;1257;66354;-40
2023/07/13 07:53:21;;;;;;;4.80;3.60;;;;;;;24.54;51.10;99113.52;107224;1256;72080;-39
2023/07/13 07:55:49;;;;;;;5.30;3.60;;;;;;;24.51;50.99;99119.73;107279;1260;60630;-40
2023/07/13 07:58:19;;;;;;;5.90;3.70;;;;;;;24.47;51.32;99121.12;107211;1258;60322;-40
2023/07/13 08:00:55;;;;;;;4.70;3.40;;;;;;;24.44;52.15;99120.69;107212;1257;73072;-39
2023/07/13 08:03:26;;;;;;;6.00;3.40;;;;;;;24.43;52.50;99123.17;107305;1257;67835;-40
2023/07/13 08:06:15;;;;;;;6.40;3.70;;;;;;;24.43;53.19;99125.05;107182;1260;71263;-39
2023/07/13 08:09:04;;;;;;;4.70;3.70;;;;;;;24.41;53.01;99127.05;107220;1258;60225;-40
2023/07/13 08:11:47;;;;;;;5.10;3.80;;;;;;;24.36;53.33;99129.49;107164;1258;60411;-39
2023/07/13 08:14:25;;;;;;;5.10;3.80;;;;;;;24.32;53.74;99132.88;107279;1260;73912;-39
2023/07/13 08:17:38;;;;;;;8.60;3.70;;;;;;;24.25;53.43;99136.17;107351;1256;67566;-41
2023/07/13 08:20:06;;;;;;;7.50;3.40;;;;;;;24.15;53.35;99132.27;107077;1258;71142;-40
2023/07/13 08:22:35;;;;;;;7.70;4.00;;;;;;;24.09;53.56;99132.75;107279;1258;61010;-39
2023/07/13 08:25:03;;;;;;;5.90;4.00;;;;;;;24.05;54.14;99132.27;107147;1257;60373;-38
2023/07/13 08:27:30;;;;;;;4.10;3.70;;;;;;;24.04;54.22;99130.36;107055;1258;74009;-38
2023/07/13 08:29:58;;;;;;;4.60;3.80;;;;;;;24.04;54.24;99127.11;107132;1256;67742;-40
2023/07/13 08:32:26;;;;;;;6.20;3.80;;;;;;;24.06;53.94;99124.48;107193;1257;71590;-39
2023/07/13 08:34:54;;;;;;;6.70;4.10;;;;;;;24.10;54.17;99124.01;107023;1257;61140;-40
2023/07/13 08:37:21;;;;;;;6.00;4.20;;;;;;;24.18;54.41;99119.98;106976;1257;60494;-39
2023/07/13 08:39:49;;;;;;;6.60;4.10;;;;;;;24.32;54.20;99112.86;107032;1257;73865;-40
2023/07/13 08:42:44;;;;;;;5.20;4.00;;;;;;;24.48;53.92;99105.94;107099;1258;67957;-39
2023/07/13 08:45:37;;;;;;;6.60;4.20;;;;;;;24.73;52.63;99103.08;106980;1256;71455;-40
2023/07/13 08:48:15;;;;;;;9.00;4.00;;;;;;;25.00;51.86;99103.04;107099;1257;60277;-39
2023/07/13 08:50:49;;;;;;;5.20;3.60;;;;;;;25.23;51.28;99094.07;107279;1255;60140;-40
2023/07/13 08:53:40;;;;;;;9.30;4.10;;;;;;;25.50;50.90;99092.83;107342;1259;73896;-39
2023/07/13 08:56:11;;;;;;;7.30;3.60;;;;;;;25.74;50.68;99095.48;107333;1259;66644;-39
2023/07/13 08:58:39;;;;;;;5.70;4.10;;;;;;;26.00;50.05;99101.14;107246;1256;71902;-40
2023/07/13 09:01:19;;;;;;;4.90;3.70;;;;;;;26.22;49.40;99105.56;107162;1257;60579;-40
2023/07/13 09:04:11;;;;;;;7.20;3.80;;;;;;;26.42;48.65;99112.06;107149;1258;60264;-40
2023/07/13 09:06:54;;;;;;;6.40;4.00;;;;;;;26.53;48.54;99112.29;107125;1260;73883;-40
2023/07/13 09:09:37;;;;;;;5.00;3.70;;;;;;;26.62;49.14;99113.66;107214;1257;67631;-39
2023/07/13 09:12:19;;;;;;;5.20;3.90;;;;;;;26.71;48.54;99110.25;107099;1256;71346;-40
2023/07/13 09:14:47;;;;;;;5.60;3.60;;;;;;;26.75;48.79;99110.78;107229;1257;60498;-40
2023/07/13 09:17:21;;;;;;;5.70;3.70;;;;;;;26.78;48.89;99110.48;107207;1257;60303;-40
2023/07/13 09:19:53;;;;;;;8.40;4.10;;;;;;;26.84;49.25;99105.30;107276;1256;72622;-40
2023/07/13 09:22:21;;;;;;;6.10;3.80;;;;;;;26.97;49.37;99102.90;107115;1257;68093;-40
2023/07/13 09:24:56;;;;;;;5.40;3.80;;;;;;;27.11;48.91;99104.45;107355;1257;72747;-40
2023/07/13 09:27:29;;;;;;;7.70;3.80;;;;;;;27.19;49.05;99102.46;107222;1256;60382;-40
2023/07/13 09:30:02;;;;;;;4.50;3.70;;;;;;;27.20;48.41;99106.92;107319;1257;60504;-40
2023/07/13 09:32:31;;;;;;;4.70;3.80;;;;;;;27.19;48.52;99105.95;107287;1257;73867;-40
2023/07/13 09:35:00;;;;;;;7.10;3.80;;;;;;;27.18;48.82;99104.96;107415;1256;67976;-39
2023/07/13 09:37:30;;;;;;;9.80;3.90;;;;;;;27.15;48.93;99103.70;107159;1257;72661;-40
2023/07/13 09:39:58;;;;;;;5.70;4.20;;;;;;;27.10;48.96;99098.30;107225;1257;60499;-40
2023/07/13 09:42:26;;;;;;;7.30;4.10;;;;;;;27.08;49.33;99102.98;107233;1256;60066;-40
2023/07/13 09:44:54;;;;;;;4.30;3.60;;;;;;;27.06;49.03;99096.64;107155;1257;72446;-40
2023/07/13 09:47:27;;;;;;;4.60;3.90;;;;;;;27.03;48.28;99094.23;107290;1257;67610;-40
2023/07/13 09:50:03;;;;;;;5.50;3.60;;;;;;;26.99;47.83;99090.70;107397;1256;72996;-40
2023/07/13 09:52:43;;;;;;;6.80;3.60;;;;;;;26.95;47.55;99082.34;107220;1255;60471;-40
2023/07/13 09:55:35;;;;;;;4.50;3.80;;;;;;;27.00;47.96;99084.64;107177;1257;60320;-40
2023/07/13 09:58:24;;;;;;;5.90;4.00;;;;;;;27.14;47.69;99084.82;107299;1256;73886;-40
2023/07/13 10:00:59;;;;;;;4.40;3.80;;;;;;;27.33;46.77;99073.59;107321;1256;66320;-40
2023/07/13 10:03:32;;;;;;;4.70;3.80;;;;;;;27.50;46.11;99073.91;107201;1256;72754;-40
2023/07/13 10:06:06;;;;;;;5.40;3.70;;;;;;;27.68;46.03;99071.98;107364;1256;60235;-40
2023/07/13 10:08:40;;;;;;;7.80;3.60;;;;;;;27.86;44.57;99062.48;107272;1255;60409;-41
2023/07/13 10:11:30;;;;;;;5.70;3.90;;;;;;;27.98;44.56;99057.13;107277;1257;75515;-41
2023/07/13 10:14:20;;;;;;;6.80;4.20;;;;;;;28.12;44.49;99058.61;107069;1256;70480;-40
2023/07/13 10:16:49;;;;;;;5.60;3.90;;;;;;;28.21;44.46;99054.23;107324;1256;72702;-39
2023/07/13 10:19:27;;;;;;;6.80;4.10;;;;;;;28.30;43.93;99043.30;107106;1257;60741;-41
2023/07/13 10:21:56;;;;;;;5.90;4.10;;;;;;;28.44;44.39;99030.45;108891;1255;60098;-39
2023/07/13 10:24:29;;;;;;;5.30;4.20;;;;;;;28.59;43.90;99029.36;109150;1256;74402;-39
2023/07/13 10:27:30;;;;;;;6.80;4.30;;;;;;;28.74;43.95;99033.05;109035;1257;68069;-39
2023/07/13 10:30:31;;;;;;;4.80;4.00;;;;;;;28.91;43.44;99021.31;108934;1256;72664;-39
2023/07/13 10:33:03;;;;;;;6.60;4.10;;;;;;;29.12;44.15;99015.98;108308;1256;60094;-39
2023/07/13 10:35:31;;;;;;;9.60;4.30;;;;;;;29.34;43.30;99011.71;106811;1256;162495;-39
2023/07/13 10:40:14;;;;;;;5.20;3.90;;;;;;;29.70;42.74;98998.02;104230;1291;600345;-40
2023/07/13 10:42:43;;;;;;;8.50;4.20;;;;;;;29.86;42.05;98997.67;106629;1265;59597;-39
2023/07/13 10:45:15;;;;;;;11.20;4.30;;;;;;;29.97;41.38;98998.80;106661;1265;60098;-39
2023/07/13 10:47:44;;;;;;;9.80;4.60;;;;;;;30.07;41.73;98994.69;106709;1266;72319;-39
2023/07/13 10:50:24;;;;;;;5.00;4.00;;;;;;;30.21;41.82;98991.10;106630;1265;67854;-39
2023/07/13 10:52:54;;;;;;;5.00;4.30;;;;;;;30.37;41.60;98990.29;106642;1263;174311;-39
2023/07/13 10:55:50;;;;;;;5.30;4.30;;;;;;;30.47;41.30;98989.17;106757;1263;59097;-40
2023/07/13 10:58:20;;;;;;;4.70;4.20;;;;;;;30.57;41.04;98982.95;106783;1263;60047;-39
2023/07/13 11:01:07;;;;;;;6.50;4.40;;;;;;;30.66;40.84;98976.92;106879;1263;70958;-40
2023/07/13 11:03:37;;;;;;;6.80;4.50;;;;;;;30.75;40.51;98973.28;106901;1263;69975;-40
2023/07/13 11:06:29;;;;;;;4.90;4.40;;;;;;;30.80;40.10;98970.90;106806;1264;71529;-39
2023/07/13 11:08:59;;;;;;;13.70;5.00;;;;;;;30.87;40.42;98968.91;106652;1263;60100;-39
2023/07/13 11:11:31;;;;;;;7.50;5.00;;;;;;;30.96;40.62;98968.11;108688;1263;61222;-39
2023/07/13 11:14:04;;;;;;;8.60;4.40;;;;;;;31.15;40.66;98970.39;108684;1263;73074;-40
2023/07/13 11:16:37;;;;;;;4.80;4.20;;;;;;;31.36;39.41;98974.39;107662;1262;66408;-39
2023/07/13 11:19:08;;;;;;;5.90;4.50;;;;;;;31.49;39.07;98973.98;106676;1267;72705;-39
2023/07/13 11:22:20;;;;;;;5.40;4.90;;;;;;;31.61;38.70;98975.40;106778;1264;59622;-39
2023/07/13 11:24:52;;;;;;;5.70;4.60;;;;;;;31.68;38.41;98982.48;106811;1267;59234;-39
2023/07/13 11:27:38;;;;;;;8.70;4.80;;;;;;;31.65;38.43;98988.55;106685;1267;73567;-39
2023/07/13 11:30:40;;;;;;;7.50;5.10;;;;;;;31.74;38.91;98988.47;106572;1263;66838;-39
2023/07/13 11:33:12;;;;;;;5.80;4.80;;;;;;;31.93;38.15;98988.42;106550;1263;73076;-39
2023/07/13 11:36:02;;;;;;;6.00;4.70;;;;;;;32.05;38.16;98984.77;106603;1264;60193;-40
2023/07/13 11:38:35;;;;;;;6.30;4.90;;;;;;;32.20;37.56;98983.21;106508;1263;60052;-40
2023/07/13 11:41:14;;;;;;;9.50;5.00;;;;;;;32.29;37.43;98981.43;106519;1267;73138;-40
2023/07/13 11:43:44;;;;;;;6.80;4.50;;;;;;;32.32;37.75;98981.11;106682;1263;67740;-39
2023/07/13 11:46:18;;;;;;;6.90;5.10;;;;;;;32.30;37.80;98980.01;106776;1263;72724;-40